Time;durP1;ratioP1;P1;durP2;ratioP2;P2;SDS_P1;SDS_P2;PMS_P1;PMS_P2;Temp;Humidity;BMP_temperature;BMP_pressure;BME280_temperature;BME280_humidity;BME280_pressure;Samples;Min_cycle;Max_cycle;Signal;HPM_P1;HPM_P2
2022/05/16 00:01:00;;;;;;;6.28;1.10;;;20.00;99.90;;;;;;5015689;28;20033;-70
2022/05/16 00:03:28;;;;;;;5.65;1.10;;;20.20;99.90;;;;;;5021492;28;20076;-70
2022/05/16 00:05:55;;;;;;;5.03;1.02;;;20.00;99.90;;;;;;5022418;28;20038;-71
2022/05/16 00:08:22;;;;;;;5.43;1.10;;;19.80;99.90;;;;;;5025109;28;20029;-70
2022/05/16 00:10:50;;;;;;;3.58;1.30;;;19.90;99.90;;;;;;5021125;28;20017;-70
2022/05/16 00:13:17;;;;;;;1.98;0.85;;;20.10;99.90;;;;;;5023638;28;20025;-69
2022/05/16 00:15:45;;;;;;;2.85;1.52;;;20.20;99.90;;;;;;5021040;28;20108;-69
2022/05/16 00:18:12;;;;;;;2.30;0.90;;;20.10;99.90;;;;;;5018405;28;20494;-69
2022/05/16 00:20:39;;;;;;;4.50;1.48;;;19.90;99.90;;;;;;5019430;28;20026;-70
2022/05/16 00:23:07;;;;;;;4.18;1.02;;;20.20;99.90;;;;;;5017947;28;20033;-70
2022/05/16 00:25:34;;;;;;;4.28;1.30;;;20.30;99.90;;;;;;5018585;28;20058;-70
2022/05/16 00:28:02;;;;;;;2.05;0.93;;;20.30;99.90;;;;;;5017095;28;20037;-70
2022/05/16 00:30:29;;;;;;;3.45;0.75;;;20.20;99.90;;;;;;5019978;28;20036;-69
2022/05/16 00:32:56;;;;;;;2.90;1.00;;;20.30;99.90;;;;;;5022137;28;20022;-70
2022/05/16 00:35:24;;;;;;;3.95;0.75;;;20.20;99.90;;;;;;5031494;28;20512;-69
2022/05/16 00:37:51;;;;;;;5.82;0.85;;;20.10;99.90;;;;;;5018597;28;20515;-69
2022/05/16 00:40:20;;;;;;;5.00;0.65;;;20.30;99.90;;;;;;5020332;28;20069;-69
2022/05/16 00:42:47;;;;;;;2.95;0.75;;;20.50;99.90;;;;;;5012084;28;20076;-69
2022/05/16 00:45:18;;;;;;;3.13;0.45;;;20.50;99.90;;;;;;5017372;28;20486;-69
2022/05/16 00:47:45;;;;;;;1.83;0.60;;;20.40;99.90;;;;;;5032121;28;20100;-69
2022/05/16 00:50:13;;;;;;;0.52;0.30;;;20.60;99.90;;;;;;5021882;28;20125;-69
2022/05/16 00:52:45;;;;;;;1.77;0.60;;;20.40;99.90;;;;;;5019786;28;20042;-70
2022/05/16 00:55:20;;;;;;;0.43;0.28;;;20.50;99.90;;;;;;5019583;28;20124;-68
2022/05/16 00:57:51;;;;;;;0.95;0.20;;;20.60;99.90;;;;;;5011524;28;20026;-69
2022/05/16 01:00:28;;;;;;;1.20;0.30;;;20.80;99.90;;;;;;5017563;28;20022;-69
2022/05/16 01:05:48;;;;;;;0.85;0.40;;;20.80;99.90;;;;;;5028949;28;20558;-68
2022/05/16 01:08:19;;;;;;;0.63;0.20;;;20.70;99.90;;;;;;5019351;28;20048;-68
2022/05/16 01:10:47;;;;;;;1.13;0.50;;;20.90;99.90;;;;;;5013463;28;20038;-68
2022/05/16 01:13:14;;;;;;;0.40;0.25;;;20.90;99.90;;;;;;5024529;28;20533;-69
2022/05/16 01:15:45;;;;;;;0.35;0.20;;;21.00;99.90;;;;;;5022269;28;20018;-69
2022/05/16 01:18:15;;;;;;;3.25;0.38;;;21.20;99.90;;;;;;5015232;28;20030;-69
2022/05/16 01:21:04;;;;;;;1.88;0.10;;;21.00;99.90;;;;;;5019368;28;20018;-69
2022/05/16 01:23:54;;;;;;;3.17;0.20;;;20.90;99.90;;;;;;5026453;28;20041;-69
2022/05/16 01:26:25;;;;;;;1.10;0.10;;;21.10;99.90;;;;;;5017692;28;20083;-69
2022/05/16 01:28:54;;;;;;;0.65;0.20;;;21.30;99.90;;;;;;5032181;28;20508;-69
2022/05/16 01:31:21;;;;;;;0.65;0.30;;;21.40;99.90;;;;;;5029731;28;20025;-69
2022/05/16 01:33:49;;;;;;;4.15;0.30;;;21.40;99.90;;;;;;5023919;28;20040;-69
2022/05/16 01:36:17;;;;;;;0.65;0.15;;;21.50;99.90;;;;;;5022320;28;20469;-69
2022/05/16 01:38:44;;;;;;;0.40;0.17;;;21.40;99.90;;;;;;5021502;28;20667;-69
2022/05/16 01:41:15;;;;;;;1.30;0.17;;;21.60;99.90;;;;;;5017982;28;20025;-69
2022/05/16 01:43:55;;;;;;;1.77;0.10;;;21.60;99.90;;;;;;5015254;28;20111;-69
2022/05/16 01:46:33;;;;;;;2.67;0.20;;;21.80;99.90;;;;;;5023662;28;20117;-71
2022/05/16 01:49:02;;;;;;;1.23;0.20;;;21.70;99.90;;;;;;5023702;28;20065;-69
2022/05/16 01:51:29;;;;;;;1.30;0.20;;;21.50;99.90;;;;;;5024546;28;20080;-68
2022/05/16 01:53:57;;;;;;;1.70;0.32;;;21.50;99.90;;;;;;5018580;28;20030;-69
2022/05/16 01:56:25;;;;;;;0.20;0.20;;;21.90;99.90;;;;;;5028962;28;20037;-69
2022/05/16 01:58:52;;;;;;;0.90;0.63;;;22.00;99.90;;;;;;5023586;28;20026;-69
2022/05/16 02:01:20;;;;;;;1.13;0.20;;;22.10;99.90;;;;;;5022174;28;20025;-68
2022/05/16 02:03:49;;;;;;;1.33;0.40;;;22.20;99.90;;;;;;5023243;28;20032;-69
2022/05/16 02:06:20;;;;;;;1.05;0.40;;;22.40;99.90;;;;;;5033431;28;20037;-68
2022/05/16 02:08:48;;;;;;;2.67;0.50;;;22.40;99.90;;;;;;5031872;28;20032;-69
2022/05/16 02:11:16;;;;;;;0.20;0.20;;;22.50;99.90;;;;;;5027413;28;20045;-69
2022/05/16 02:13:46;;;;;;;0.43;0.25;;;22.90;99.90;;;;;;5025393;28;20026;-69
2022/05/16 02:16:13;;;;;;;1.40;0.15;;;23.30;99.90;;;;;;5018337;28;20030;-70
2022/05/16 02:18:41;;;;;;;0.32;0.20;;;23.80;99.90;;;;;;5027421;28;20025;-69
2022/05/16 02:26:39;;;;;;;0.38;0.20;;;22.80;99.90;;;;;;5024762;28;20040;-70
2022/05/16 02:29:07;;;;;;;2.60;0.10;;;23.30;99.90;;;;;;5028323;28;20022;-70
2022/05/16 02:31:34;;;;;;;0.73;0.30;;;23.10;99.90;;;;;;5031215;28;20478;-70
2022/05/16 02:34:01;;;;;;;0.60;0.30;;;23.20;99.90;;;;;;5023962;28;20030;-70
2022/05/16 02:36:29;;;;;;;0.95;0.13;;;23.90;99.90;;;;;;5018629;28;20040;-70
2022/05/16 02:38:56;;;;;;;3.20;0.10;;;23.40;99.90;;;;;;5019508;28;20506;-71
2022/05/16 02:41:23;;;;;;;0.80;0.30;;;23.40;99.90;;;;;;5026125;28;20072;-71
2022/05/16 02:43:51;;;;;;;1.13;0.20;;;23.20;99.90;;;;;;5022483;28;20030;-71
2022/05/16 02:46:18;;;;;;;0.20;0.13;;;23.50;99.90;;;;;;5023576;28;20108;-71
2022/05/16 02:48:45;;;;;;;0.95;0.38;;;23.50;99.90;;;;;;5022324;28;20053;-70
2022/05/16 02:51:13;;;;;;;0.70;0.30;;;24.30;99.90;;;;;;5024029;28;20017;-70
2022/05/16 02:53:40;;;;;;;3.35;0.30;;;24.50;99.90;;;;;;5022922;28;20071;-70
2022/05/16 02:56:07;;;;;;;0.77;0.30;;;23.90;99.90;;;;;;5016637;28;20029;-70
2022/05/16 02:58:35;;;;;;;1.08;0.40;;;23.70;99.90;;;;;;5018744;28;20064;-70
2022/05/16 03:01:02;;;;;;;1.17;0.52;;;23.60;99.90;;;;;;5017730;28;20040;-71
2022/05/16 03:03:29;;;;;;;2.05;0.30;;;23.80;99.90;;;;;;5025019;28;20411;-71
2022/05/16 03:05:56;;;;;;;1.70;0.50;;;23.50;99.90;;;;;;5021969;28;20017;-71
2022/05/16 03:08:25;;;;;;;1.10;0.20;;;23.70;99.90;;;;;;5019407;28;20147;-70
2022/05/16 03:10:52;;;;;;;3.83;0.63;;;23.90;99.90;;;;;;5024515;28;20025;-71
2022/05/16 03:13:19;;;;;;;1.35;0.30;;;24.10;99.90;;;;;;5017878;28;20061;-71
2022/05/16 03:15:47;;;;;;;0.57;0.20;;;24.60;99.90;;;;;;5018676;28;20663;-71
2022/05/16 03:18:14;;;;;;;1.92;0.30;;;23.90;99.90;;;;;;5020213;28;20029;-71
2022/05/16 03:20:41;;;;;;;1.15;0.20;;;24.10;99.90;;;;;;5022537;28;20397;-71
2022/05/16 03:23:08;;;;;;;1.45;0.28;;;23.50;99.90;;;;;;5016437;28;20061;-70
2022/05/16 03:25:36;;;;;;;1.95;0.40;;;23.30;99.90;;;;;;5020673;28;20033;-70
2022/05/16 03:28:03;;;;;;;2.08;0.40;;;23.00;99.90;;;;;;5021136;28;20465;-70
2022/05/16 03:30:30;;;;;;;2.17;0.57;;;22.70;99.90;;;;;;5019016;28;20022;-70
2022/05/16 03:32:58;;;;;;;1.25;0.35;;;23.00;99.90;;;;;;5024920;28;20401;-70
2022/05/16 03:35:25;;;;;;;0.60;0.30;;;23.90;99.90;;;;;;5028146;28;20026;-70
2022/05/16 03:37:52;;;;;;;2.47;0.70;;;24.50;99.90;;;;;;5031008;28;20017;-70
2022/05/16 03:43:06;;;;;;;1.52;0.40;;;24.10;99.90;;;;;;5013787;28;20037;-71
2022/05/16 03:45:33;;;;;;;0.98;0.45;;;23.50;99.90;;;;;;5020817;28;20091;-71
2022/05/16 03:48:00;;;;;;;1.42;0.35;;;23.20;99.90;;;;;;5031343;28;20021;-71
2022/05/16 03:50:27;;;;;;;0.47;0.22;;;22.70;99.90;;;;;;5029781;28;20059;-71
2022/05/16 03:52:58;;;;;;;1.55;0.22;;;22.90;99.90;;;;;;5030640;28;20053;-71
2022/05/16 03:55:25;;;;;;;0.88;0.40;;;22.80;99.90;;;;;;5022171;28;20588;-70
2022/05/16 03:57:52;;;;;;;0.50;0.30;;;22.80;99.90;;;;;;5025033;28;20032;-70
2022/05/16 04:00:21;;;;;;;0.88;0.30;;;22.70;99.90;;;;;;5017058;28;20029;-70
2022/05/16 04:02:49;;;;;;;1.42;0.65;;;22.70;99.90;;;;;;5024943;28;20045;-71
2022/05/16 04:05:20;;;;;;;1.73;0.57;;;22.70;99.90;;;;;;5026829;28;20079;-70
2022/05/16 04:07:48;;;;;;;2.05;0.38;;;22.60;99.90;;;;;;5026394;28;20385;-70
2022/05/16 04:10:16;;;;;;;2.35;0.63;;;22.60;99.90;;;;;;5029963;28;20025;-70
2022/05/16 04:12:43;;;;;;;1.42;0.40;;;22.40;99.90;;;;;;5024328;28;20032;-70
2022/05/16 04:15:13;;;;;;;0.95;0.40;;;22.50;99.90;;;;;;5021800;28;20046;-70
2022/05/16 04:17:41;;;;;;;0.65;0.20;;;22.50;99.90;;;;;;5024701;28;20021;-70
2022/05/16 04:20:11;;;;;;;0.82;0.40;;;22.60;99.90;;;;;;5028256;28;20378;-70
2022/05/16 04:22:39;;;;;;;1.15;0.50;;;22.60;99.90;;;;;;5032518;28;20025;-70
2022/05/16 04:25:07;;;;;;;2.25;0.40;;;22.50;99.90;;;;;;5011454;28;20469;-70
2022/05/16 04:27:35;;;;;;;0.68;0.32;;;22.30;99.90;;;;;;5022104;28;20393;-70
2022/05/16 04:30:03;;;;;;;2.47;0.70;;;22.20;99.90;;;;;;5025960;28;20116;-70
2022/05/16 04:32:30;;;;;;;1.70;0.70;;;22.40;99.90;;;;;;5032432;28;20030;-70
2022/05/16 04:34:58;;;;;;;4.40;0.57;;;22.60;99.90;;;;;;5024890;28;20097;-71
2022/05/16 04:37:26;;;;;;;5.03;0.47;;;22.60;99.90;;;;;;5022316;28;20041;-70
2022/05/16 04:39:53;;;;;;;1.65;0.30;;;22.60;99.90;;;;;;5013254;28;20733;-70
2022/05/16 04:45:06;;;;;;;2.50;0.93;;;22.30;99.90;;;;;;5029339;28;20394;-70
2022/05/16 04:47:33;;;;;;;1.92;0.50;;;22.30;99.90;;;;;;5029365;28;20452;-70
2022/05/16 04:50:01;;;;;;;0.77;0.38;;;22.40;99.90;;;;;;5016600;28;20030;-70
2022/05/16 04:52:28;;;;;;;0.90;0.40;;;22.50;99.90;;;;;;5015343;28;20052;-70
2022/05/16 04:54:55;;;;;;;0.75;0.60;;;22.50;99.90;;;;;;5030808;28;20490;-70
2022/05/16 04:57:23;;;;;;;3.85;0.73;;;22.40;99.90;;;;;;5035963;28;20040;-70
2022/05/16 04:59:51;;;;;;;0.70;0.50;;;22.40;99.90;;;;;;5027910;28;20029;-71
2022/05/16 05:02:18;;;;;;;0.70;0.30;;;22.40;99.90;;;;;;5033799;28;20025;-70
2022/05/16 05:04:46;;;;;;;1.42;0.50;;;22.50;99.90;;;;;;5030486;28;20049;-71
2022/05/16 05:07:13;;;;;;;2.05;0.75;;;22.60;99.90;;;;;;5016221;28;20034;-71
2022/05/16 05:15:14;;;;;;;3.08;0.55;;;22.30;99.90;;;;;;5018467;28;20040;-71
2022/05/16 05:17:41;;;;;;;3.47;0.55;;;22.20;99.90;;;;;;5024588;28;20029;-71
2022/05/16 05:20:13;;;;;;;0.93;0.47;;;22.10;99.90;;;;;;5027572;28;20040;-71
2022/05/16 05:22:45;;;;;;;3.53;0.52;;;22.20;99.90;;;;;;5013497;28;20121;-69
2022/05/16 05:25:15;;;;;;;2.67;0.32;;;22.20;99.90;;;;;;5021662;28;20037;-70
2022/05/16 05:27:44;;;;;;;2.15;0.47;;;22.20;99.90;;;;;;5027084;28;20109;-70
2022/05/16 05:30:14;;;;;;;2.53;0.40;;;22.20;99.90;;;;;;5027266;28;20548;-70
2022/05/16 05:32:43;;;;;;;0.50;0.30;;;22.20;99.90;;;;;;5022259;28;20056;-70
2022/05/16 05:35:11;;;;;;;0.63;0.30;;;22.20;99.90;;;;;;5024514;28;20112;-70
2022/05/16 05:37:38;;;;;;;0.70;0.40;;;22.20;99.90;;;;;;5032005;28;20017;-70
2022/05/16 05:40:07;;;;;;;1.17;0.40;;;22.20;99.90;;;;;;5016036;28;20062;-70
2022/05/16 05:42:35;;;;;;;2.45;0.30;;;22.20;99.90;;;;;;5027101;28;20025;-70
2022/05/16 05:45:04;;;;;;;3.70;0.98;;;22.20;99.90;;;;;;5025691;28;20450;-70
2022/05/16 05:47:31;;;;;;;0.88;0.40;;;22.30;99.90;;;;;;5029055;28;20049;-70
2022/05/16 05:50:01;;;;;;;0.70;0.40;;;22.30;99.90;;;;;;5025128;28;20109;-70
2022/05/16 05:52:32;;;;;;;1.15;0.40;;;22.20;99.90;;;;;;5019555;28;20417;-70
2022/05/16 05:54:59;;;;;;;2.42;0.52;;;22.20;99.90;;;;;;5019798;28;20124;-70
2022/05/16 05:57:27;;;;;;;0.65;0.20;;;22.20;99.90;;;;;;5047612;28;20030;-70
2022/05/16 05:59:56;;;;;;;0.77;0.30;;;22.20;99.90;;;;;;5024388;28;20034;-70
2022/05/16 06:02:24;;;;;;;0.75;0.30;;;22.10;99.90;;;;;;5016223;28;20045;-70
2022/05/16 06:04:52;;;;;;;4.35;0.32;;;22.10;99.90;;;;;;5017400;28;20099;-70
2022/05/16 06:07:19;;;;;;;0.85;0.30;;;22.10;99.90;;;;;;5014612;28;20033;-70
2022/05/16 06:09:47;;;;;;;0.80;0.30;;;22.00;99.90;;;;;;5018596;28;20501;-70
2022/05/16 06:12:14;;;;;;;2.28;0.38;;;22.00;99.90;;;;;;5028709;28;20390;-70
2022/05/16 06:14:45;;;;;;;5.65;0.35;;;22.00;99.90;;;;;;5028736;28;20471;-70
2022/05/16 06:17:13;;;;;;;1.35;0.43;;;21.90;99.90;;;;;;5015052;28;20030;-70
2022/05/16 06:19:40;;;;;;;3.42;0.40;;;21.90;99.90;;;;;;5020025;28;20485;-70
2022/05/16 06:22:07;;;;;;;0.85;0.32;;;21.90;99.90;;;;;;5021705;28;20073;-70
2022/05/16 06:27:20;;;;;;;0.60;0.40;;;21.90;99.90;;;;;;5019535;28;20060;-71
2022/05/16 06:29:48;;;;;;;4.97;0.80;;;21.80;99.90;;;;;;5021536;28;20026;-71
2022/05/16 06:32:15;;;;;;;1.75;0.40;;;21.70;99.90;;;;;;5030145;28;20025;-71
2022/05/16 06:34:43;;;;;;;2.05;0.40;;;21.70;99.90;;;;;;5019085;28;20034;-70
2022/05/16 06:37:10;;;;;;;1.45;0.50;;;21.70;99.90;;;;;;5015536;28;20022;-70
2022/05/16 06:39:37;;;;;;;1.40;0.63;;;21.60;99.90;;;;;;5022286;28;20433;-70
2022/05/16 06:42:05;;;;;;;3.65;1.08;;;21.50;99.90;;;;;;5015723;28;20029;-70
2022/05/16 06:44:33;;;;;;;2.70;0.38;;;21.50;99.90;;;;;;5020488;28;21043;-71
2022/05/16 06:47:01;;;;;;;5.35;1.10;;;21.40;99.90;;;;;;5008741;28;20022;-71
2022/05/16 06:49:28;;;;;;;2.65;0.98;;;21.40;99.90;;;;;;5023541;28;20116;-70
2022/05/16 06:51:55;;;;;;;4.85;0.80;;;21.30;99.90;;;;;;5022004;28;20068;-71
2022/05/16 06:54:23;;;;;;;2.15;1.02;;;21.30;99.90;;;;;;5022001;28;20091;-71
2022/05/16 06:56:50;;;;;;;1.70;0.40;;;21.30;99.90;;;;;;5022800;28;20029;-70
2022/05/16 06:59:19;;;;;;;1.90;0.38;;;21.20;99.90;;;;;;5014656;28;20029;-70
2022/05/16 07:01:46;;;;;;;1.15;0.50;;;21.10;99.90;;;;;;5014579;28;20080;-70
2022/05/16 07:04:14;;;;;;;3.97;0.80;;;21.00;99.90;;;;;;5020864;28;20033;-71
2022/05/16 07:06:41;;;;;;;1.25;0.50;;;20.90;99.90;;;;;;5022756;28;20033;-71
2022/05/16 07:09:09;;;;;;;2.13;0.50;;;20.90;99.90;;;;;;5017593;28;20022;-71
2022/05/16 07:11:36;;;;;;;1.30;0.50;;;20.80;99.90;;;;;;5028617;28;20042;-71
2022/05/16 07:14:04;;;;;;;2.00;0.32;;;20.60;99.90;;;;;;5016957;28;20030;-71
2022/05/16 07:16:31;;;;;;;1.27;0.30;;;20.40;99.90;;;;;;5021761;28;20045;-71
2022/05/16 07:18:58;;;;;;;0.95;0.30;;;20.30;99.90;;;;;;5030900;28;20521;-71
2022/05/16 07:21:26;;;;;;;1.13;0.30;;;20.20;99.90;;;;;;5017282;28;20037;-71
2022/05/16 07:23:53;;;;;;;2.28;0.45;;;20.10;99.90;;;;;;5019023;28;20025;-70
2022/05/16 07:29:06;;;;;;;1.45;0.55;;;19.90;99.90;;;;;;5018006;28;20036;-71
2022/05/16 07:31:34;;;;;;;3.10;0.60;;;19.90;99.90;;;;;;5027221;28;20091;-71
2022/05/16 07:34:02;;;;;;;4.88;0.70;;;19.90;99.90;;;;;;5013256;28;20033;-71
2022/05/16 07:36:29;;;;;;;1.48;0.70;;;19.90;99.90;;;;;;5018705;28;20034;-71
2022/05/16 07:38:56;;;;;;;1.10;0.45;;;19.90;99.90;;;;;;5018415;28;20477;-71
2022/05/16 07:41:24;;;;;;;1.95;0.63;;;20.00;99.90;;;;;;5026527;28;20517;-71
2022/05/16 07:43:51;;;;;;;2.08;0.70;;;19.90;99.90;;;;;;5014489;28;20124;-71
2022/05/16 07:46:19;;;;;;;2.80;0.85;;;19.90;99.90;;;;;;5012856;28;20022;-70
2022/05/16 07:48:46;;;;;;;2.53;1.00;;;19.90;99.90;;;;;;5020653;28;20021;-70
2022/05/16 07:51:14;;;;;;;1.70;0.55;;;19.80;99.90;;;;;;5022022;28;20036;-71
2022/05/16 07:53:41;;;;;;;3.72;1.08;;;19.80;99.90;;;;;;5013671;28;20030;-70
2022/05/16 07:56:11;;;;;;;5.47;0.73;;;19.70;99.90;;;;;;5020758;28;20489;-70
2022/05/16 07:58:39;;;;;;;4.93;1.50;;;19.60;99.90;;;;;;5022510;28;20032;-70
2022/05/16 08:01:06;;;;;;;5.78;0.80;;;19.60;99.90;;;;;;5028013;28;20037;-70
2022/05/16 08:03:34;;;;;;;3.08;1.00;;;19.50;99.90;;;;;;5030693;28;20116;-70
2022/05/16 08:06:01;;;;;;;8.00;1.10;;;19.50;99.90;;;;;;5030290;28;20030;-70
2022/05/16 08:11:14;;;;;;;3.53;0.95;;;19.40;99.90;;;;;;5014697;28;20040;-70
2022/05/16 08:13:42;;;;;;;4.40;1.17;;;19.30;99.90;;;;;;5023700;28;20026;-70
2022/05/16 08:16:10;;;;;;;2.58;1.10;;;19.20;99.90;;;;;;5020047;28;20029;-70
2022/05/16 08:18:38;;;;;;;2.80;1.02;;;19.20;99.90;;;;;;5023261;28;20048;-70
2022/05/16 08:21:07;;;;;;;3.53;1.35;;;19.20;99.90;;;;;;5017960;28;20076;-70
2022/05/16 08:23:35;;;;;;;4.57;1.85;;;19.20;99.90;;;;;;5028080;28;20106;-70
2022/05/16 08:26:04;;;;;;;5.75;1.90;;;19.30;99.90;;;;;;5024901;28;20034;-71
2022/05/16 08:28:32;;;;;;;6.45;3.20;;;19.30;99.90;;;;;;5024280;28;20033;-71
2022/05/16 08:31:00;;;;;;;11.60;3.85;;;19.10;99.90;;;;;;5032527;28;20049;-70
2022/05/16 08:33:28;;;;;;;8.30;3.97;;;19.10;99.90;;;;;;5028901;28;20029;-71
2022/05/16 08:41:40;;;;;;;5.97;1.88;;;19.00;99.90;;;;;;5026484;28;20398;-70
2022/05/16 08:44:41;;;;;;;3.67;1.70;;;18.90;99.90;;;;;;5017920;28;20030;-70
2022/05/16 08:47:40;;;;;;;5.30;1.70;;;18.80;99.90;;;;;;5031576;28;20036;-70
2022/05/16 08:50:19;;;;;;;5.95;0.98;;;18.70;99.90;;;;;;5018217;28;20470;-70
2022/05/16 08:52:56;;;;;;;2.30;0.90;;;19.10;99.90;;;;;;5020251;28;20052;-70
2022/05/16 08:55:40;;;;;;;6.40;1.13;;;19.30;99.90;;;;;;5016519;28;20018;-70
2022/05/16 08:58:33;;;;;;;3.72;1.05;;;19.50;99.90;;;;;;5022755;28;20247;-69
2022/05/16 09:01:22;;;;;;;3.60;1.58;;;19.50;99.90;;;;;;5017835;28;20104;-70
2022/05/16 09:04:24;;;;;;;3.85;1.10;;;19.50;99.90;;;;;;5032943;28;20038;-70
2022/05/16 09:07:05;;;;;;;5.32;0.70;;;19.50;99.90;;;;;;5033787;28;20055;-70
2022/05/16 09:10:08;;;;;;;7.45;0.70;;;19.50;99.90;;;;;;5015816;28;20054;-70
2022/05/16 09:12:48;;;;;;;6.25;0.95;;;19.50;99.90;;;;;;5028502;28;20030;-70
2022/05/16 09:15:25;;;;;;;3.17;1.08;;;19.50;99.90;;;;;;5020687;28;20555;-70
2022/05/16 09:18:01;;;;;;;3.97;1.65;;;19.50;99.90;;;;;;5019353;28;20025;-70
2022/05/16 09:21:07;;;;;;;6.15;2.67;;;19.40;99.90;;;;;;5027288;28;20033;-70
2022/05/16 09:23:58;;;;;;;5.93;0.95;;;19.40;99.90;;;;;;5032982;28;20036;-69
2022/05/16 09:26:50;;;;;;;3.65;1.77;;;19.30;99.90;;;;;;5032792;28;20029;-68
2022/05/16 09:29:37;;;;;;;3.85;1.30;;;19.30;99.90;;;;;;5018873;28;20449;-69
2022/05/16 09:32:07;;;;;;;5.65;1.40;;;19.30;99.90;;;;;;5015737;28;20018;-69
2022/05/16 09:34:35;;;;;;;2.45;1.02;;;19.20;99.90;;;;;;5017513;28;20038;-68
2022/05/16 09:37:03;;;;;;;2.58;0.63;;;19.10;99.90;;;;;;5021326;28;20546;-69
2022/05/16 09:39:35;;;;;;;2.97;0.82;;;19.00;99.90;;;;;;5034083;28;20486;-69
2022/05/16 09:42:04;;;;;;;4.78;0.47;;;19.00;99.90;;;;;;5034284;28;20079;-69
2022/05/16 09:44:48;;;;;;;4.90;1.08;;;19.00;99.90;;;;;;5029219;28;20037;-69
2022/05/16 09:47:30;;;;;;;3.47;0.75;;;19.00;99.90;;;;;;5034741;28;20030;-69
2022/05/16 09:50:24;;;;;;;4.93;0.52;;;18.90;99.90;;;;;;5017081;28;20030;-68
2022/05/16 09:53:09;;;;;;;4.93;0.83;;;18.90;99.90;;;;;;5022713;28;20061;-68
2022/05/16 09:55:42;;;;;;;1.98;0.60;;;18.80;99.90;;;;;;5015202;28;20026;-69
2022/05/16 09:58:15;;;;;;;3.13;0.50;;;18.80;99.90;;;;;;5018597;28;20038;-68
2022/05/16 10:01:04;;;;;;;2.00;0.52;;;18.70;99.90;;;;;;5033363;28;20032;-69
2022/05/16 10:03:43;;;;;;;4.88;0.98;;;18.60;99.90;;;;;;5019781;28;20020;-68
2022/05/16 10:06:31;;;;;;;4.40;2.13;;;18.60;99.90;;;;;;5018644;28;20105;-67
2022/05/16 10:09:09;;;;;;;11.32;3.28;;;18.50;99.90;;;;;;5017379;28;20061;-67
2022/05/16 10:11:39;;;;;;;2.92;0.93;;;18.40;99.90;;;;;;5023536;28;20077;-68
2022/05/16 10:14:07;;;;;;;3.78;0.65;;;18.40;99.90;;;;;;5020734;28;20026;-68
2022/05/16 10:16:37;;;;;;;5.30;0.93;;;18.40;99.90;;;;;;5029073;28;20033;-68
2022/05/16 10:19:12;;;;;;;3.85;0.52;;;18.40;99.90;;;;;;5024763;28;20430;-68
2022/05/16 10:22:05;;;;;;;2.33;0.63;;;18.30;99.90;;;;;;5030154;28;20021;-68
2022/05/16 10:24:38;;;;;;;5.35;0.73;;;18.30;99.90;;;;;;5021044;28;20048;-68
2022/05/16 10:27:11;;;;;;;3.90;1.27;;;18.20;99.90;;;;;;5033213;28;20029;-68
2022/05/16 10:29:49;;;;;;;4.43;0.70;;;18.20;99.90;;;;;;5031922;28;20472;-68
2022/05/16 10:35:17;;;;;;;3.65;0.63;;;18.00;99.90;;;;;;5027360;28;20091;-68
2022/05/16 10:37:47;;;;;;;6.47;0.50;;;18.00;99.90;;;;;;5029295;28;20488;-68
2022/05/16 10:40:20;;;;;;;5.13;1.02;;;17.90;99.90;;;;;;5026339;28;20032;-68
2022/05/16 10:43:10;;;;;;;4.65;0.70;;;17.90;99.90;;;;;;5023009;28;20022;-68
2022/05/16 10:45:42;;;;;;;6.53;0.90;;;17.80;99.90;;;;;;5033711;28;20033;-68
2022/05/16 10:48:15;;;;;;;5.05;0.52;;;17.80;99.90;;;;;;5024108;28;20047;-69
2022/05/16 10:50:52;;;;;;;4.97;0.75;;;17.70;99.90;;;;;;5024111;28;20030;-68
2022/05/16 10:53:36;;;;;;;2.50;0.55;;;17.80;99.90;;;;;;5031722;28;20076;-69
2022/05/16 10:56:48;;;;;;;2.20;0.65;;;17.80;99.90;;;;;;5024136;28;20076;-69
2022/05/16 10:59:46;;;;;;;3.38;0.80;;;17.80;99.90;;;;;;5023691;28;20064;-69
2022/05/16 11:03:00;;;;;;;3.25;0.57;;;17.80;99.90;;;;;;5020787;28;21428;-69
2022/05/16 11:05:49;;;;;;;2.37;0.53;;;17.70;99.90;;;;;;5032451;28;20136;-69
2022/05/16 11:08:54;;;;;;;2.78;0.68;;;17.80;99.90;;;;;;5029499;28;20038;-69
2022/05/16 11:11:27;;;;;;;3.22;0.60;;;17.70;99.90;;;;;;5025179;28;20429;-69
2022/05/16 11:14:18;;;;;;;4.97;1.40;;;17.70;99.90;;;;;;5026810;28;20476;-69
2022/05/16 11:16:50;;;;;;;6.07;1.40;;;17.60;99.90;;;;;;5031111;28;20108;-69
2022/05/16 11:19:46;;;;;;;3.83;1.10;;;17.40;99.90;;;;;;5030551;28;20390;-69
2022/05/16 11:22:25;;;;;;;7.30;0.75;;;17.30;99.90;;;;;;5016215;28;20041;-66
2022/05/16 11:25:01;;;;;;;6.80;1.13;;;17.30;99.90;;;;;;5017396;28;20026;-67
2022/05/16 11:27:35;;;;;;;4.93;1.10;;;17.20;99.90;;;;;;5023291;28;20029;-67
2022/05/16 11:30:06;;;;;;;4.45;0.90;;;17.20;99.90;;;;;;5019824;28;20457;-67
2022/05/16 11:32:46;;;;;;;3.40;0.90;;;17.20;99.90;;;;;;5029958;28;20087;-67
2022/05/16 11:35:32;;;;;;;3.08;0.70;;;17.20;99.90;;;;;;5024052;28;20013;-67
2022/05/16 11:38:26;;;;;;;3.22;0.75;;;17.10;99.90;;;;;;5012885;28;20044;-67
2022/05/16 11:41:15;;;;;;;3.60;0.70;;;17.10;99.90;;;;;;5019722;28;20398;-66
2022/05/16 11:43:46;;;;;;;5.88;1.00;;;17.10;99.90;;;;;;5014865;28;20271;-68
2022/05/16 11:46:45;;;;;;;4.95;0.85;;;17.10;99.90;;;;;;5017160;28;20029;-69
2022/05/16 11:49:26;;;;;;;3.33;0.70;;;17.20;99.90;;;;;;5021444;28;20078;-69
2022/05/16 11:52:20;;;;;;;2.53;0.70;;;17.00;99.90;;;;;;5021301;28;20053;-70
2022/05/16 12:00:31;;;;;;;4.10;0.75;;;17.00;99.90;;;;;;5021443;28;20025;-70
2022/05/16 12:00:57;;;;;;;5.43;1.45;;;17.10;99.90;;;;;;5027317;28;20393;-70
2022/05/16 12:03:44;;;;;;;5.97;1.20;;;17.10;99.90;;;;;;5024633;28;20026;-70
2022/05/16 12:06:33;;;;;;;2.58;0.70;;;17.10;99.90;;;;;;5020199;28;20096;-68
2022/05/16 12:09:23;;;;;;;3.25;1.08;;;17.20;99.90;;;;;;5025823;28;20118;-70
2022/05/16 12:12:01;;;;;;;3.25;0.88;;;17.10;99.90;;;;;;5017724;28;20405;-69
2022/05/16 12:14:39;;;;;;;4.97;0.88;;;17.20;99.90;;;;;;5023858;28;20026;-70
2022/05/16 12:17:19;;;;;;;7.43;0.93;;;17.20;99.90;;;;;;5025847;28;20386;-70
2022/05/16 12:19:52;;;;;;;5.50;0.85;;;17.20;99.90;;;;;;5018287;28;20040;-70
2022/05/16 12:22:33;;;;;;;4.60;0.93;;;17.20;99.90;;;;;;5024944;28;20394;-68
2022/05/16 12:25:28;;;;;;;8.93;1.05;;;17.10;99.90;;;;;;5015094;28;20044;-69
2022/05/16 12:28:13;;;;;;;4.00;1.35;;;17.10;99.90;;;;;;5016736;28;20155;-68
2022/05/16 12:30:58;;;;;;;4.00;0.73;;;17.10;99.90;;;;;;5019362;28;20046;-68
2022/05/16 12:33:44;;;;;;;6.40;0.98;;;17.10;99.90;;;;;;5014498;28;20057;-68
2022/05/16 12:36:16;;;;;;;4.82;0.40;;;17.20;99.90;;;;;;5019373;28;20060;-68
2022/05/16 12:38:46;;;;;;;3.85;0.95;;;17.20;99.90;;;;;;5021270;28;20504;-68
2022/05/16 12:41:47;;;;;;;9.55;1.75;;;17.20;99.90;;;;;;5015027;28;20029;-69
2022/05/16 12:44:41;;;;;;;4.30;0.93;;;17.00;99.90;;;;;;5019945;28;20030;-68
2022/05/16 12:47:59;;;;;;;4.00;0.65;;;16.90;99.90;;;;;;5013343;28;20026;-68
2022/05/16 12:50:40;;;;;;;3.33;0.85;;;17.00;99.90;;;;;;5014062;28;20033;-68
2022/05/16 12:53:08;;;;;;;4.50;0.80;;;17.10;99.90;;;;;;5008022;28;20049;-68
2022/05/16 12:55:50;;;;;;;2.63;0.90;;;17.20;99.90;;;;;;5012611;28;20100;-68
2022/05/16 12:58:35;;;;;;;6.65;1.38;;;17.10;99.90;;;;;;5016293;28;20034;-68
2022/05/16 13:01:07;;;;;;;;;;;17.10;99.90;;;;;;5025473;28;20025;-69
2022/05/16 13:04:03;;;;;;;2.92;0.88;;;17.00;99.90;;;;;;5014572;28;19937;-68
2022/05/16 13:06:42;;;;;;;3.95;0.75;;;16.90;99.90;;;;;;5029338;28;20057;-68
2022/05/16 13:09:29;;;;;;;3.88;0.70;;;16.80;99.90;;;;;;5020682;28;20505;-68
2022/05/16 13:12:22;;;;;;;4.60;0.70;;;16.80;99.90;;;;;;5021967;28;20678;-69
2022/05/16 13:15:06;;;;;;;6.35;1.05;;;16.70;99.90;;;;;;5025522;28;20501;-68
2022/05/16 13:17:48;;;;;;;4.60;0.70;;;16.70;99.90;;;;;;5027738;28;20034;-69
2022/05/16 13:20:24;;;;;;;3.35;0.88;;;16.60;99.90;;;;;;5022351;28;20030;-69
2022/05/16 13:22:51;;;;;;;7.80;1.17;;;16.70;99.90;;;;;;5016746;28;20105;-69
2022/05/16 13:25:23;;;;;;;4.10;0.52;;;16.60;99.90;;;;;;5015808;28;20061;-68
2022/05/16 13:30:42;;;;;;;5.47;1.08;;;16.40;99.90;;;;;;5021229;28;20035;-68
2022/05/16 13:33:41;;;;;;;5.63;0.90;;;16.50;99.90;;;;;;5021606;28;20026;-69
2022/05/16 13:36:21;;;;;;;4.60;1.25;;;16.50;99.90;;;;;;5021592;28;20092;-68
2022/05/16 13:39:00;;;;;;;3.50;0.80;;;16.40;99.90;;;;;;5018228;28;20053;-69
2022/05/16 13:41:30;;;;;;;3.58;1.08;;;16.30;99.90;;;;;;5020721;28;20486;-68
2022/05/16 13:43:58;;;;;;;5.10;1.13;;;16.30;99.90;;;;;;5021408;28;20464;-68
2022/05/16 13:46:28;;;;;;;4.75;1.13;;;16.30;99.90;;;;;;5021526;28;20022;-68
2022/05/16 13:49:01;;;;;;;4.78;1.35;;;16.30;99.90;;;;;;5027672;28;20375;-68
2022/05/16 13:51:29;;;;;;;4.35;1.08;;;16.30;99.90;;;;;;5019091;28;20073;-68
2022/05/16 13:53:57;;;;;;;5.30;1.48;;;16.40;99.90;;;;;;5020145;28;20230;-68
2022/05/16 13:56:45;;;;;;;6.32;1.75;;;16.50;99.90;;;;;;5018283;28;20084;-68
2022/05/16 13:59:12;;;;;;;4.57;1.05;;;16.50;99.90;;;;;;5027318;28;20029;-69
2022/05/16 14:01:51;;;;;;;4.03;0.82;;;16.50;99.90;;;;;;5017672;28;20129;-68